Time;durP1;ratioP1;P1;durP2;ratioP2;P2;SDS_P1;SDS_P2;PMS_P1;PMS_P2;Temp;Humidity;BMP_temperature;BMP_pressure;BME280_temperature;BME280_humidity;BME280_pressure;Samples;Min_cycle;Max_cycle;Signal;HPM_P1;HPM_P2
2023/09/01 00:00:09;;;;;;;1.00;1.00;;;19.70;64.40;;;;;;5053070;28;20616;-71
2023/09/01 00:02:35;;;;;;;0.90;0.90;;;19.70;64.50;;;;;;5054098;28;20179;-70
2023/09/01 00:05:01;;;;;;;1.02;1.02;;;19.70;64.40;;;;;;5053898;28;20175;-72
2023/09/01 00:07:26;;;;;;;2.58;1.10;;;19.70;64.40;;;;;;5053126;28;20183;-72
2023/09/01 00:09:52;;;;;;;1.55;1.05;;;19.70;64.40;;;;;;5053755;28;20166;-72
2023/09/01 00:12:17;;;;;;;0.93;0.93;;;19.70;64.50;;;;;;5053729;28;20167;-71
2023/09/01 00:14:43;;;;;;;1.65;1.00;;;19.70;64.60;;;;;;5053154;28;20222;-69
2023/09/01 00:17:08;;;;;;;1.83;1.08;;;19.70;65.50;;;;;;5053459;28;20163;-70
2023/09/01 00:19:37;;;;;;;0.95;0.88;;;19.70;64.50;;;;;;5053719;28;20225;-70
2023/09/01 00:22:03;;;;;;;1.30;1.05;;;19.70;64.50;;;;;;5051367;28;20233;-72
2023/09/01 00:24:31;;;;;;;1.17;1.08;;;19.60;64.50;;;;;;5053426;28;20175;-71
2023/09/01 00:26:57;;;;;;;1.77;0.85;;;19.60;64.40;;;;;;5053744;28;20195;-72
2023/09/01 00:29:23;;;;;;;1.25;0.88;;;19.60;65.40;;;;;;5052776;28;20629;-72
2023/09/01 00:31:49;;;;;;;2.33;1.25;;;19.60;64.70;;;;;;5053422;28;20178;-73
2023/09/01 00:34:15;;;;;;;1.30;1.20;;;19.60;64.60;;;;;;5053074;28;20175;-72
2023/09/01 00:36:40;;;;;;;1.55;1.25;;;19.60;64.60;;;;;;5052625;28;20171;-71
2023/09/01 00:39:07;;;;;;;1.65;1.20;;;19.60;64.60;;;;;;5052985;28;20213;-72
2023/09/01 00:41:32;;;;;;;1.95;1.05;;;19.60;64.80;;;;;;5052109;28;20179;-72
2023/09/01 00:43:58;;;;;;;1.27;0.90;;;19.60;64.70;;;;;;5052306;28;20537;-72
2023/09/01 00:46:24;;;;;;;1.30;1.00;;;19.60;64.60;;;;;;5053357;28;20186;-73
2023/09/01 00:48:49;;;;;;;1.20;1.08;;;19.60;64.70;;;;;;5051768;28;20210;-73
2023/09/01 00:51:15;;;;;;;1.98;1.23;;;19.60;64.80;;;;;;5052160;28;20175;-73
2023/09/01 00:53:40;;;;;;;2.70;1.13;;;19.60;64.70;;;;;;5053292;28;20649;-71
2023/09/01 00:56:06;;;;;;;1.50;1.20;;;19.60;64.70;;;;;;5053161;28;20167;-71
2023/09/01 00:58:32;;;;;;;2.88;1.33;;;19.60;64.70;;;;;;5050973;28;20749;-69
2023/09/01 01:00:58;;;;;;;1.80;1.00;;;19.60;64.70;;;;;;5053092;28;20518;-71
2023/09/01 01:03:24;;;;;;;1.30;0.98;;;19.60;64.80;;;;;;5052039;28;20634;-72
2023/09/01 01:06:12;;;;;;;1.20;1.10;;;19.60;64.80;;;;;;5052867;28;20179;-72
2023/09/01 01:09:12;;;;;;;1.92;1.20;;;19.60;64.70;;;;;;5041818;28;20685;-71
2023/09/01 01:11:53;;;;;;;2.33;1.27;;;19.60;65.60;;;;;;5051021;28;20175;-71
2023/09/01 01:14:38;;;;;;;1.98;1.10;;;19.60;64.80;;;;;;5052595;28;20266;-71
2023/09/01 01:17:05;;;;;;;0.93;0.90;;;19.60;64.80;;;;;;5052420;28;20175;-70
2023/09/01 01:19:37;;;;;;;1.30;1.20;;;19.50;64.70;;;;;;5052151;28;20167;-70
2023/09/01 01:22:03;;;;;;;1.33;1.20;;;19.60;64.90;;;;;;5052654;28;20686;-70
2023/09/01 01:24:28;;;;;;;1.42;1.33;;;19.60;64.90;;;;;;5050931;28;20271;-70
2023/09/01 01:26:54;;;;;;;1.52;1.15;;;19.60;65.60;;;;;;5051407;28;20629;-71
2023/09/01 01:29:19;;;;;;;1.25;1.05;;;19.60;64.90;;;;;;5052499;28;20252;-72
2023/09/01 01:31:45;;;;;;;1.50;1.40;;;19.50;65.60;;;;;;5052198;28;20687;-73
2023/09/01 01:34:10;;;;;;;2.65;1.33;;;19.50;64.80;;;;;;5051212;28;20508;-72
2023/09/01 01:37:11;;;;;;;1.60;1.05;;;19.50;64.80;;;;;;5051838;28;20246;-71
2023/09/01 01:39:37;;;;;;;1.30;1.02;;;19.50;64.80;;;;;;5029804;28;20176;-71
2023/09/01 01:42:07;;;;;;;1.27;1.17;;;19.50;64.80;;;;;;5042567;28;20179;-72
2023/09/01 01:44:35;;;;;;;1.40;1.30;;;19.50;64.80;;;;;;5051504;28;20186;-70
2023/09/01 01:47:00;;;;;;;2.70;1.27;;;19.50;64.80;;;;;;5051662;28;20179;-73
2023/09/01 01:49:30;;;;;;;1.77;1.17;;;19.50;64.90;;;;;;5051243;28;20222;-73
2023/09/01 01:51:57;;;;;;;1.77;1.27;;;19.50;64.80;;;;;;5052813;28;20206;-73
2023/09/01 01:54:23;;;;;;;1.30;1.10;;;19.50;65.10;;;;;;5053413;28;20183;-71
2023/09/01 01:56:49;;;;;;;1.42;1.30;;;19.50;64.90;;;;;;5053215;28;20172;-71
2023/09/01 01:59:16;;;;;;;2.60;1.35;;;19.50;65.00;;;;;;5052994;28;20230;-70
2023/09/01 02:01:42;;;;;;;1.63;1.35;;;19.50;64.90;;;;;;5051677;28;20716;-71
2023/09/01 02:04:07;;;;;;;1.25;1.15;;;19.50;64.90;;;;;;5052036;28;20183;-72
2023/09/01 02:06:33;;;;;;;1.85;1.40;;;19.50;64.90;;;;;;5052024;28;20171;-71
2023/09/01 02:08:58;;;;;;;1.73;1.30;;;19.50;65.00;;;;;;5052805;28;20259;-72
2023/09/01 02:11:24;;;;;;;1.40;1.30;;;19.50;64.90;;;;;;5055968;28;20305;-71
2023/09/01 02:13:49;;;;;;;1.67;1.52;;;19.40;64.80;;;;;;5055504;28;20186;-70
2023/09/01 02:16:15;;;;;;;1.27;1.17;;;19.40;64.80;;;;;;5055743;28;20229;-70
2023/09/01 02:18:40;;;;;;;1.90;1.20;;;19.50;65.70;;;;;;5056024;28;20179;-69
2023/09/01 02:21:06;;;;;;;1.35;1.25;;;19.50;64.80;;;;;;5055012;28;20194;-71
2023/09/01 02:23:31;;;;;;;2.63;1.50;;;19.40;64.80;;;;;;5056095;28;20719;-71
2023/09/01 02:25:57;;;;;;;2.13;1.67;;;19.50;65.70;;;;;;5055947;28;20626;-70
2023/09/01 02:28:23;;;;;;;2.08;1.30;;;19.40;64.80;;;;;;5054975;28;20290;-71
2023/09/01 02:30:48;;;;;;;1.42;1.33;;;19.40;64.70;;;;;;5055850;28;20233;-71
2023/09/01 02:33:14;;;;;;;1.15;1.02;;;19.40;64.80;;;;;;5055492;28;20179;-73
2023/09/01 02:35:44;;;;;;;2.70;1.58;;;19.40;64.80;;;;;;5055004;28;20183;-71
2023/09/01 02:38:11;;;;;;;1.85;1.48;;;19.40;65.70;;;;;;5055582;28;20258;-71
2023/09/01 02:40:36;;;;;;;1.73;1.15;;;19.40;64.80;;;;;;5055855;28;20287;-69
2023/09/01 02:43:03;;;;;;;1.50;1.40;;;19.40;64.80;;;;;;5054764;28;20172;-72
2023/09/01 02:45:28;;;;;;;1.52;1.20;;;19.40;64.70;;;;;;5055451;28;20183;-72
2023/09/01 02:47:54;;;;;;;1.70;1.40;;;19.40;64.80;;;;;;5055551;28;20199;-72
2023/09/01 02:50:20;;;;;;;1.40;1.30;;;19.40;64.80;;;;;;5054304;28;20179;-72
2023/09/01 02:52:45;;;;;;;1.63;1.50;;;19.40;64.70;;;;;;5055534;28;20270;-70
2023/09/01 02:55:12;;;;;;;1.30;1.20;;;19.40;64.90;;;;;;5055200;28;20175;-70
2023/09/01 02:57:37;;;;;;;1.65;1.52;;;19.40;64.90;;;;;;5054525;28;20222;-69
2023/09/01 03:00:38;;;;;;;2.00;1.77;;;19.40;64.90;;;;;;5055154;28;20183;-70
2023/09/01 03:02:56;;;;;;;1.50;1.40;;;19.40;64.80;;;;;;5054252;28;20639;-72
2023/09/01 03:05:25;;;;;;;2.53;1.50;;;19.40;64.80;;;;;;5055026;28;20193;-71
2023/09/01 03:07:51;;;;;;;1.50;1.40;;;19.40;64.80;;;;;;5055111;28;20297;-71
2023/09/01 03:10:17;;;;;;;2.85;1.73;;;19.40;64.80;;;;;;5053936;28;20175;-71
2023/09/01 03:12:42;;;;;;;3.25;1.40;;;19.40;64.80;;;;;;5055094;28;20613;-70
2023/09/01 03:15:12;;;;;;;2.58;1.85;;;19.40;64.80;;;;;;5054543;28;20217;-70
2023/09/01 03:17:37;;;;;;;2.20;1.42;;;19.40;64.80;;;;;;5054462;28;20186;-69
2023/09/01 03:20:09;;;;;;;1.52;1.40;;;19.40;65.70;;;;;;5054105;28;20179;-70
2023/09/01 03:22:35;;;;;;;2.15;1.88;;;19.30;64.80;;;;;;5054670;28;20228;-69
2023/09/01 03:25:01;;;;;;;3.03;1.58;;;19.30;64.80;;;;;;5053812;28;20650;-70
2023/09/01 03:27:27;;;;;;;2.15;1.50;;;19.30;64.70;;;;;;5054624;28;20233;-70
2023/09/01 03:29:55;;;;;;;1.50;1.33;;;19.30;64.80;;;;;;5054580;28;20210;-71
2023/09/01 03:32:21;;;;;;;1.63;1.52;;;19.30;64.80;;;;;;5053912;28;20179;-73
2023/09/01 03:34:46;;;;;;;1.80;1.70;;;19.40;65.70;;;;;;5054551;28;20187;-72
2023/09/01 03:37:12;;;;;;;2.95;1.60;;;19.30;64.80;;;;;;5054417;28;20179;-72
2023/09/01 03:39:38;;;;;;;2.10;1.60;;;19.30;64.80;;;;;;5053907;28;20552;-70
2023/09/01 03:42:04;;;;;;;2.38;1.63;;;19.30;64.80;;;;;;5054298;28;20228;-71
2023/09/01 03:44:29;;;;;;;2.72;1.60;;;19.30;64.80;;;;;;5054320;28;20179;-70
2023/09/01 03:46:55;;;;;;;2.13;1.50;;;19.30;64.80;;;;;;5053892;28;20567;-72
2023/09/01 03:49:21;;;;;;;1.90;1.60;;;19.30;64.70;;;;;;5054124;28;20678;-72
2023/09/01 03:51:46;;;;;;;1.52;1.38;;;19.30;64.70;;;;;;5054298;28;20246;-72
2023/09/01 03:54:12;;;;;;;1.83;1.45;;;19.30;64.70;;;;;;5053249;28;20179;-71
2023/09/01 03:56:37;;;;;;;1.60;1.50;;;19.30;64.70;;;;;;5054256;28;20172;-70
2023/09/01 03:59:03;;;;;;;2.20;1.60;;;19.30;64.80;;;;;;5053644;28;20223;-70
2023/09/01 04:01:29;;;;;;;1.55;1.45;;;19.30;64.80;;;;;;5053489;28;20544;-72
2023/09/01 04:03:54;;;;;;;1.13;1.10;;;19.30;64.80;;;;;;5054115;28;20269;-73
2023/09/01 04:06:20;;;;;;;2.05;1.50;;;19.30;64.80;;;;;;5053127;28;20174;-72
2023/09/01 04:08:46;;;;;;;1.50;1.40;;;19.30;64.80;;;;;;5053969;28;20238;-72
2023/09/01 04:11:11;;;;;;;2.67;1.73;;;19.30;64.80;;;;;;5053782;28;20179;-71
2023/09/01 04:13:37;;;;;;;1.63;1.48;;;19.30;64.80;;;;;;5053146;28;20198;-71
2023/09/01 04:16:03;;;;;;;1.70;1.60;;;19.30;64.90;;;;;;5053593;28;20167;-69
2023/09/01 04:18:30;;;;;;;2.42;1.67;;;19.30;64.90;;;;;;5053850;28;20257;-69
2023/09/01 04:20:55;;;;;;;1.50;1.40;;;19.30;64.90;;;;;;5053079;28;20199;-70
2023/09/01 04:23:21;;;;;;;1.95;1.58;;;19.30;64.90;;;;;;5053413;28;20646;-71
2023/09/01 04:25:47;;;;;;;1.50;1.40;;;19.30;64.90;;;;;;5053583;28;20254;-70
2023/09/01 04:28:16;;;;;;;1.70;1.60;;;19.20;64.90;;;;;;5052409;28;20229;-70
2023/09/01 04:30:44;;;;;;;2.22;1.60;;;19.20;64.80;;;;;;5053813;28;20174;-71
2023/09/01 04:33:10;;;;;;;1.67;1.50;;;19.30;65.80;;;;;;5053005;28;20182;-72
2023/09/01 04:35:36;;;;;;;1.30;1.17;;;19.20;64.90;;;;;;5052834;28;20197;-70
2023/09/01 04:38:02;;;;;;;1.85;1.73;;;19.20;64.90;;;;;;5053303;28;20237;-70
2023/09/01 04:40:28;;;;;;;2.28;1.60;;;19.20;64.90;;;;;;5053171;28;20684;-69
2023/09/01 04:42:54;;;;;;;2.00;1.80;;;19.20;64.80;;;;;;5052851;28;20175;-70
2023/09/01 04:45:19;;;;;;;2.40;1.95;;;19.30;64.90;;;;;;5052959;28;20171;-72
2023/09/01 04:47:45;;;;;;;1.40;1.30;;;19.30;64.90;;;;;;5053386;28;20171;-72
2023/09/01 04:50:10;;;;;;;1.77;1.52;;;19.20;64.90;;;;;;5052151;28;20182;-71
2023/09/01 04:52:36;;;;;;;2.13;1.45;;;19.20;64.90;;;;;;5053216;28;20167;-70
2023/09/01 04:55:03;;;;;;;2.75;1.50;;;19.20;64.90;;;;;;5052787;28;20232;-70
2023/09/01 04:57:30;;;;;;;1.60;1.50;;;19.20;64.90;;;;;;5052446;28;20178;-70
2023/09/01 04:59:55;;;;;;;2.15;1.80;;;19.20;65.80;;;;;;5052948;28;20226;-70
2023/09/01 05:02:21;;;;;;;2.65;1.52;;;19.20;64.90;;;;;;5052678;28;20183;-70
2023/09/01 05:04:47;;;;;;;1.85;1.65;;;19.20;64.90;;;;;;5052441;28;20266;-71
2023/09/01 05:07:12;;;;;;;1.65;1.55;;;19.20;64.90;;;;;;5052689;28;20206;-71
2023/09/01 05:09:38;;;;;;;1.83;1.70;;;19.20;65.00;;;;;;5052165;28;20246;-71
2023/09/01 05:12:04;;;;;;;2.20;1.75;;;19.20;65.00;;;;;;5052638;28;20627;-70
2023/09/01 05:14:29;;;;;;;1.73;1.60;;;19.20;65.00;;;;;;5052616;28;20185;-69
2023/09/01 05:16:56;;;;;;;1.67;1.58;;;19.20;65.00;;;;;;5052088;28;20175;-71
2023/09/01 05:19:22;;;;;;;1.90;1.35;;;19.20;65.00;;;;;;5052540;28;20210;-70
2023/09/01 05:21:48;;;;;;;2.00;1.60;;;19.30;65.10;;;;;;5052965;28;20260;-72
2023/09/01 05:24:13;;;;;;;1.48;1.38;;;19.20;65.00;;;;;;5051877;28;20175;-70
2023/09/01 05:26:39;;;;;;;1.90;1.80;;;19.20;65.00;;;;;;5052882;28;20186;-69
2023/09/01 05:29:05;;;;;;;1.85;1.60;;;19.20;65.10;;;;;;5052627;28;20715;-71
2023/09/01 05:31:30;;;;;;;1.63;1.52;;;19.20;65.90;;;;;;5051948;28;20175;-71
2023/09/01 05:33:56;;;;;;;2.28;1.55;;;19.20;65.10;;;;;;5052759;28;20182;-72
2023/09/01 05:36:21;;;;;;;1.50;1.40;;;19.20;65.10;;;;;;5052353;28;20642;-72
2023/09/01 05:38:47;;;;;;;1.98;1.70;;;19.20;65.10;;;;;;5051888;28;20171;-72
2023/09/01 05:41:13;;;;;;;2.00;1.85;;;19.20;65.10;;;;;;5052450;28;20232;-71
2023/09/01 05:43:38;;;;;;;1.67;1.58;;;19.20;65.10;;;;;;5052914;28;20642;-71
2023/09/01 05:46:04;;;;;;;1.95;1.70;;;19.20;65.10;;;;;;5055817;28;20177;-73
2023/09/01 05:48:30;;;;;;;2.08;1.77;;;19.20;65.10;;;;;;5056151;28;20666;-71
2023/09/01 05:50:55;;;;;;;2.35;1.70;;;19.30;65.20;;;;;;5056601;28;20646;-72
2023/09/01 05:53:21;;;;;;;2.50;1.55;;;19.20;65.10;;;;;;5055484;28;20245;-70
2023/09/01 05:55:47;;;;;;;1.90;1.58;;;19.20;65.10;;;;;;5056504;28;20183;-69
2023/09/01 05:58:12;;;;;;;1.70;1.42;;;19.20;65.10;;;;;;5056727;28;20325;-70
2023/09/01 06:00:38;;;;;;;1.95;1.48;;;19.20;65.20;;;;;;5055582;28;20175;-69
2023/09/01 06:03:04;;;;;;;1.90;1.70;;;19.20;65.20;;;;;;5056109;28;20172;-71
2023/09/01 06:05:30;;;;;;;1.45;1.33;;;19.20;65.20;;;;;;5056337;28;20216;-71
2023/09/01 06:07:55;;;;;;;2.47;1.77;;;19.20;65.20;;;;;;5055466;28;20178;-71
2023/09/01 06:10:21;;;;;;;2.65;1.63;;;19.20;65.20;;;;;;5055987;28;20175;-72
2023/09/01 06:12:47;;;;;;;1.90;1.80;;;19.20;66.00;;;;;;5055489;28;20178;-70
2023/09/01 06:15:12;;;;;;;2.00;1.77;;;19.30;65.20;;;;;;5055945;28;20167;-69
2023/09/01 06:17:38;;;;;;;2.10;1.92;;;19.30;65.30;;;;;;5056143;28;20175;-69
2023/09/01 06:20:05;;;;;;;1.90;1.80;;;19.30;65.40;;;;;;5055277;28;20211;-69
2023/09/01 06:22:31;;;;;;;2.58;1.75;;;19.20;65.30;;;;;;5055825;28;20676;-68
2023/09/01 06:24:56;;;;;;;1.92;1.80;;;19.30;65.40;;;;;;5055950;28;20183;-69
2023/09/01 06:27:22;;;;;;;1.70;1.60;;;19.30;65.40;;;;;;5055056;28;20210;-69
2023/09/01 06:29:47;;;;;;;2.00;1.80;;;19.30;65.40;;;;;;5055727;28;20223;-70
2023/09/01 06:32:13;;;;;;;3.22;2.38;;;19.30;65.40;;;;;;5055350;28;20229;-72
2023/09/01 06:34:39;;;;;;;2.33;1.90;;;19.30;65.20;;;;;;5055078;28;20175;-70
2023/09/01 06:37:04;;;;;;;2.25;1.52;;;19.30;65.30;;;;;;5055504;28;20756;-70
2023/09/01 06:39:30;;;;;;;2.60;1.67;;;19.40;65.40;;;;;;5055487;28;20185;-70
2023/09/01 06:41:55;;;;;;;3.25;1.90;;;19.40;65.40;;;;;;5055081;28;20175;-70
2023/09/01 06:44:21;;;;;;;2.85;1.95;;;19.40;65.30;;;;;;5055400;28;20513;-70
2023/09/01 06:46:47;;;;;;;2.03;1.83;;;19.40;65.20;;;;;;5055509;28;20232;-72
2023/09/01 06:49:12;;;;;;;2.63;1.88;;;19.40;65.20;;;;;;5054465;28;20293;-71
2023/09/01 06:51:38;;;;;;;2.22;2.05;;;19.40;65.20;;;;;;5055327;28;20171;-71
2023/09/01 06:54:03;;;;;;;2.50;2.13;;;19.40;65.20;;;;;;5055058;28;20220;-70
2023/09/01 06:56:29;;;;;;;2.45;2.25;;;19.40;65.30;;;;;;5054279;28;20507;-69
2023/09/01 06:58:54;;;;;;;2.63;1.98;;;19.40;65.20;;;;;;5055113;28;20239;-70
2023/09/01 07:01:21;;;;;;;2.10;1.90;;;19.40;66.10;;;;;;5054796;28;20208;-71
2023/09/01 07:03:47;;;;;;;2.75;2.00;;;19.40;65.20;;;;;;5054362;28;20190;-70
2023/09/01 07:06:12;;;;;;;2.13;1.63;;;19.40;65.30;;;;;;5054646;28;20172;-72
2023/09/01 07:08:38;;;;;;;2.20;1.90;;;19.40;65.20;;;;;;5055048;28;20610;-70
2023/09/01 07:11:04;;;;;;;2.03;1.60;;;19.40;65.20;;;;;;5054418;28;20258;-71
2023/09/01 07:13:30;;;;;;;3.05;1.98;;;19.50;65.20;;;;;;5065132;28;20174;-69
2023/09/01 07:15:55;;;;;;;3.72;1.83;;;19.50;65.10;;;;;;5066343;28;20537;-70
2023/09/01 07:18:25;;;;;;;2.35;1.80;;;19.40;65.00;;;;;;5053841;28;20175;-70
2023/09/01 07:20:51;;;;;;;2.05;1.75;;;19.50;65.20;;;;;;5058698;28;20722;-69
2023/09/01 07:23:17;;;;;;;2.00;1.80;;;19.50;65.20;;;;;;5053650;28;20338;-70
2023/09/01 07:25:44;;;;;;;2.22;1.83;;;19.50;66.10;;;;;;5054964;28;20203;-69
2023/09/01 07:28:11;;;;;;;2.75;1.67;;;19.40;65.10;;;;;;5058189;28;20277;-71
2023/09/01 07:30:37;;;;;;;3.83;2.00;;;19.50;65.20;;;;;;5074224;28;20182;-69
2023/09/01 07:33:03;;;;;;;2.92;1.65;;;19.40;65.10;;;;;;5074388;28;20349;-72
2023/09/01 07:35:28;;;;;;;4.05;2.08;;;19.40;65.10;;;;;;5074557;28;20183;-71
2023/09/01 07:37:55;;;;;;;2.67;1.92;;;19.40;65.10;;;;;;5074093;28;20178;-71
2023/09/01 07:40:21;;;;;;;2.58;2.13;;;19.50;66.00;;;;;;5074262;28;20175;-70
2023/09/01 07:42:46;;;;;;;2.05;1.95;;;19.50;65.10;;;;;;5074674;28;20170;-70
2023/09/01 07:45:12;;;;;;;3.08;2.10;;;19.50;65.10;;;;;;5069870;28;20179;-72
2023/09/01 07:47:37;;;;;;;1.70;1.60;;;19.50;65.10;;;;;;5054438;28;20570;-72
2023/09/01 07:50:03;;;;;;;2.42;1.98;;;19.50;66.00;;;;;;5054271;28;20263;-72
2023/09/01 07:52:29;;;;;;;2.38;2.17;;;19.50;65.10;;;;;;5053415;28;20171;-69
2023/09/01 07:54:55;;;;;;;2.95;1.70;;;19.50;65.10;;;;;;5054180;28;20649;-70
2023/09/01 07:57:20;;;;;;;4.13;2.30;;;19.50;65.10;;;;;;5053778;28;20186;-69
2023/09/01 07:59:46;;;;;;;2.03;1.83;;;19.50;65.10;;;;;;5053375;28;20223;-68
2023/09/01 08:02:14;;;;;;;3.72;2.45;;;19.50;65.10;;;;;;5053703;28;20551;-71
2023/09/01 08:04:40;;;;;;;2.20;1.90;;;19.50;65.10;;;;;;5053898;28;20509;-69
2023/09/01 08:07:05;;;;;;;2.22;1.90;;;19.50;65.20;;;;;;5052250;28;20253;-72
2023/09/01 08:09:31;;;;;;;2.42;2.00;;;19.50;65.20;;;;;;5053960;28;20221;-69
2023/09/01 08:11:56;;;;;;;3.10;2.30;;;19.50;65.30;;;;;;5053871;28;20697;-69
2023/09/01 08:14:22;;;;;;;2.63;2.00;;;19.60;65.30;;;;;;5053115;28;20583;-70
2023/09/01 08:16:48;;;;;;;2.78;2.10;;;19.50;65.30;;;;;;5054027;28;20600;-69
2023/09/01 08:19:13;;;;;;;2.35;1.85;;;19.50;65.20;;;;;;5056035;28;20175;-68
2023/09/01 08:21:39;;;;;;;2.28;1.80;;;19.50;65.10;;;;;;5072793;28;20197;-68
2023/09/01 08:24:05;;;;;;;2.30;1.92;;;19.60;65.10;;;;;;5073655;28;20170;-68
2023/09/01 08:26:32;;;;;;;5.25;2.53;;;19.60;65.10;;;;;;5072482;28;20170;-70
2023/09/01 08:28:58;;;;;;;3.33;2.00;;;19.60;65.30;;;;;;5073225;28;20210;-69
2023/09/01 08:31:23;;;;;;;4.68;1.75;;;19.60;65.20;;;;;;5073220;28;20177;-71
2023/09/01 08:33:49;;;;;;;2.65;2.08;;;19.60;65.40;;;;;;5072219;28;20174;-71
2023/09/01 08:36:14;;;;;;;5.65;2.45;;;19.60;65.30;;;;;;5073063;28;20178;-71
2023/09/01 08:38:40;;;;;;;3.75;2.20;;;19.60;65.50;;;;;;5073214;28;20308;-68
2023/09/01 08:41:05;;;;;;;3.65;1.88;;;19.60;65.70;;;;;;5072257;28;20202;-70
2023/09/01 08:43:35;;;;;;;3.58;2.25;;;19.60;65.90;;;;;;5073206;28;20182;-69
2023/09/01 08:46:04;;;;;;;2.20;1.90;;;19.60;66.00;;;;;;5073594;28;20186;-71
2023/09/01 08:48:33;;;;;;;3.83;2.00;;;19.60;66.00;;;;;;5072477;28;20331;-69
2023/09/01 08:51:03;;;;;;;3.13;1.80;;;19.60;66.00;;;;;;5073132;28;20531;-69
2023/09/01 08:53:29;;;;;;;2.83;2.10;;;19.60;66.00;;;;;;5073030;28;20551;-66
2023/09/01 08:55:54;;;;;;;2.78;1.92;;;19.60;65.80;;;;;;5072609;28;20181;-67
2023/09/01 08:58:21;;;;;;;2.22;2.00;;;19.60;65.80;;;;;;5072634;28;20222;-67
2023/09/01 09:00:47;;;;;;;3.58;2.20;;;19.60;66.00;;;;;;5071727;28;20178;-67
2023/09/01 09:03:13;;;;;;;3.25;2.00;;;19.60;66.00;;;;;;5072067;28;20369;-70
2023/09/01 09:05:39;;;;;;;4.45;2.20;;;19.60;66.00;;;;;;5071706;28;20562;-68
2023/09/01 09:08:06;;;;;;;2.70;2.00;;;19.60;66.00;;;;;;5071750;28;20237;-70
2023/09/01 09:10:40;;;;;;;2.85;1.75;;;19.60;66.00;;;;;;5072206;28;20178;-68
2023/09/01 09:13:25;;;;;;;4.13;2.30;;;19.60;66.20;;;;;;5072703;28;20174;-70
2023/09/01 09:16:10;;;;;;;2.63;1.95;;;19.60;66.30;;;;;;5072291;28;20178;-70
2023/09/01 09:18:43;;;;;;;2.90;2.20;;;19.60;66.30;;;;;;5071922;28;20171;-68
2023/09/01 09:21:31;;;;;;;3.63;1.77;;;19.70;66.30;;;;;;5053986;28;20182;-70
2023/09/01 09:24:01;;;;;;;2.58;1.92;;;19.70;66.20;;;;;;5052066;28;20178;-69
2023/09/01 09:26:27;;;;;;;4.38;2.28;;;19.70;66.30;;;;;;5052536;28;20713;-67
2023/09/01 09:28:53;;;;;;;3.45;1.90;;;19.70;66.40;;;;;;5052597;28;20246;-69
2023/09/01 09:31:27;;;;;;;2.33;2.00;;;19.70;66.30;;;;;;5051873;28;20210;-69
2023/09/01 09:33:53;;;;;;;2.28;1.90;;;19.70;66.30;;;;;;5052779;28;20175;-69
2023/09/01 09:36:30;;;;;;;2.55;2.08;;;19.70;66.30;;;;;;5052392;28;20174;-69
2023/09/01 09:38:56;;;;;;;2.42;1.92;;;19.70;66.30;;;;;;5050810;28;20174;-68
2023/09/01 09:41:21;;;;;;;2.40;1.98;;;19.70;66.30;;;;;;5052176;28;20246;-68
2023/09/01 09:43:48;;;;;;;2.67;2.08;;;19.70;66.30;;;;;;5052106;28;20175;-67
2023/09/01 09:46:14;;;;;;;3.58;1.90;;;19.80;66.30;;;;;;5052210;28;20236;-68
2023/09/01 09:48:40;;;;;;;2.90;1.95;;;19.70;66.40;;;;;;5051273;28;20214;-68
2023/09/01 09:51:08;;;;;;;2.97;1.80;;;19.70;66.30;;;;;;5051531;28;20221;-68
2023/09/01 09:53:39;;;;;;;2.97;2.00;;;19.70;66.30;;;;;;5052641;28;20179;-66
2023/09/01 09:56:30;;;;;;;4.43;2.45;;;19.70;66.40;;;;;;5052459;28;20163;-67
2023/09/01 09:58:56;;;;;;;2.88;2.15;;;19.70;66.40;;;;;;5050517;28;20229;-67
2023/09/01 10:01:22;;;;;;;2.50;2.30;;;19.70;66.50;;;;;;5034047;28;20724;-68
2023/09/01 10:03:48;;;;;;;2.63;2.25;;;19.70;66.50;;;;;;5052239;28;20642;-68
2023/09/01 10:06:16;;;;;;;3.15;2.20;;;19.70;66.50;;;;;;5051190;28;20171;-69
2023/09/01 10:08:42;;;;;;;3.55;2.08;;;19.70;66.50;;;;;;5052096;28;20215;-67
2023/09/01 10:11:08;;;;;;;3.00;2.25;;;19.70;66.40;;;;;;5050857;28;20583;-67
2023/09/01 10:13:33;;;;;;;2.38;1.95;;;19.70;66.50;;;;;;5050231;28;20171;-67
2023/09/01 10:16:00;;;;;;;2.42;1.92;;;19.70;66.50;;;;;;5050774;28;20626;-66
2023/09/01 10:18:25;;;;;;;3.08;2.42;;;19.70;66.50;;;;;;5050712;28;20689;-66
2023/09/01 10:20:51;;;;;;;4.45;2.65;;;19.70;66.50;;;;;;5067823;28;20209;-67
2023/09/01 10:23:16;;;;;;;2.72;2.35;;;19.70;66.50;;;;;;5070917;28;20633;-68
2023/09/01 10:25:58;;;;;;;4.05;2.60;;;19.70;66.50;;;;;;5072373;28;20237;-66
2023/09/01 10:28:23;;;;;;;4.32;2.15;;;19.70;66.50;;;;;;5070557;28;20541;-67
2023/09/01 10:30:49;;;;;;;3.85;2.60;;;19.70;66.50;;;;;;5073102;28;20177;-65
2023/09/01 10:33:25;;;;;;;2.40;2.20;;;19.60;66.60;;;;;;5074553;28;20174;-68
2023/09/01 10:35:51;;;;;;;3.03;2.17;;;19.60;66.50;;;;;;5075788;28;20178;-68
2023/09/01 10:38:23;;;;;;;4.07;2.60;;;19.60;66.60;;;;;;5073881;28;20209;-68
2023/09/01 10:40:52;;;;;;;3.67;2.30;;;19.60;66.50;;;;;;5074975;28;20246;-67
2023/09/01 10:43:35;;;;;;;2.45;2.22;;;19.60;66.60;;;;;;5075300;28;20706;-67
2023/09/01 10:46:16;;;;;;;2.78;2.40;;;19.60;66.60;;;;;;5075505;28;20277;-67
2023/09/01 10:48:51;;;;;;;3.00;2.17;;;19.60;66.60;;;;;;5064922;28;20210;-67
2023/09/01 10:51:21;;;;;;;3.45;2.50;;;19.60;66.60;;;;;;5055284;28;20583;-68
2023/09/01 10:53:50;;;;;;;3.45;2.58;;;19.60;66.60;;;;;;5055451;28;20229;-67
2023/09/01 10:56:15;;;;;;;2.65;2.10;;;19.60;66.60;;;;;;5053394;28;20186;-67
2023/09/01 10:58:45;;;;;;;2.85;2.45;;;19.60;66.60;;;;;;5055015;28;20226;-66
2023/09/01 11:01:23;;;;;;;3.63;2.80;;;19.60;66.70;;;;;;5054332;28;20234;-68
2023/09/01 11:03:49;;;;;;;3.90;2.60;;;19.60;66.60;;;;;;5055219;28;20228;-68
2023/09/01 11:06:14;;;;;;;4.50;2.80;;;19.60;66.60;;;;;;5053395;28;20183;-68
2023/09/01 11:08:41;;;;;;;3.47;2.83;;;19.60;66.60;;;;;;5053964;28;20306;-66
2023/09/01 11:11:07;;;;;;;3.72;2.53;;;19.60;66.60;;;;;;5055052;28;20201;-67
2023/09/01 11:13:33;;;;;;;3.15;2.50;;;19.70;66.60;;;;;;5055006;28;20653;-66
2023/09/01 11:16:07;;;;;;;2.78;2.20;;;19.60;66.60;;;;;;5054205;28;20213;-67
2023/09/01 11:18:33;;;;;;;3.75;2.72;;;19.70;66.60;;;;;;5053749;28;20211;-69
2023/09/01 11:21:00;;;;;;;3.10;2.70;;;19.70;66.60;;;;;;5054969;28;20205;-67
2023/09/01 11:23:27;;;;;;;5.18;2.28;;;19.70;66.60;;;;;;5053158;28;20182;-68
2023/09/01 11:25:59;;;;;;;3.28;2.55;;;19.70;66.60;;;;;;5054868;28;20179;-67
2023/09/01 11:28:28;;;;;;;2.67;2.42;;;19.70;66.70;;;;;;5054653;28;20214;-68
2023/09/01 11:31:03;;;;;;;4.55;2.50;;;19.60;66.90;;;;;;5054112;28;20178;-68
2023/09/01 11:33:33;;;;;;;3.42;2.40;;;19.70;66.70;;;;;;5054841;28;20175;-67
2023/09/01 11:36:07;;;;;;;3.30;2.65;;;19.70;66.80;;;;;;5054230;28;20206;-69
2023/09/01 11:38:34;;;;;;;4.72;3.20;;;19.60;66.80;;;;;;5053807;28;20646;-67
2023/09/01 11:41:00;;;;;;;3.10;2.78;;;19.70;66.90;;;;;;5052750;28;20237;-68
2023/09/01 11:43:26;;;;;;;4.45;3.47;;;19.70;66.90;;;;;;5051949;28;20617;-68
2023/09/01 11:45:52;;;;;;;5.05;2.90;;;19.70;67.80;;;;;;5053126;28;20174;-70
2023/09/01 11:48:24;;;;;;;2.90;2.45;;;19.70;66.90;;;;;;5053932;28;20210;-70
2023/09/01 11:50:50;;;;;;;4.43;3.05;;;19.70;67.70;;;;;;5053815;28;20175;-69
2023/09/01 11:53:34;;;;;;;3.20;2.90;;;19.70;66.90;;;;;;5053957;28;20202;-69
2023/09/01 11:56:03;;;;;;;4.93;3.15;;;19.70;66.90;;;;;;5053952;28;20179;-70
2023/09/01 11:58:32;;;;;;;3.83;2.90;;;19.70;66.80;;;;;;5053387;28;20223;-69
2023/09/01 12:01:23;;;;;;;3.88;3.17;;;19.70;66.70;;;;;;5053914;28;20655;-71
2023/09/01 12:04:03;;;;;;;4.25;2.85;;;19.70;66.70;;;;;;5053112;28;20175;-70
2023/09/01 12:06:29;;;;;;;5.10;3.30;;;19.70;66.70;;;;;;5053221;28;20586;-69
2023/09/01 12:09:08;;;;;;;4.47;3.15;;;19.70;66.60;;;;;;5054028;28;20264;-69
2023/09/01 12:11:34;;;;;;;4.82;2.83;;;19.70;66.70;;;;;;5053255;28;20179;-67
2023/09/01 12:14:25;;;;;;;3.40;3.10;;;19.80;66.70;;;;;;5053603;28;20250;-68
2023/09/01 12:16:53;;;;;;;3.85;3.47;;;19.80;66.50;;;;;;5053877;28;20250;-68
2023/09/01 12:19:21;;;;;;;5.75;3.15;;;19.80;67.50;;;;;;5053091;28;20203;-69
2023/09/01 12:21:46;;;;;;;4.88;3.45;;;19.70;66.60;;;;;;5053815;28;20174;-68
2023/09/01 12:24:12;;;;;;;3.47;3.17;;;19.70;67.40;;;;;;5053576;28;20176;-69
2023/09/01 12:26:37;;;;;;;3.33;2.90;;;19.70;66.60;;;;;;5052959;28;20179;-69
2023/09/01 12:29:03;;;;;;;3.47;3.17;;;19.70;66.60;;;;;;5053484;28;20199;-70
2023/09/01 12:31:28;;;;;;;5.90;3.65;;;19.70;66.50;;;;;;5053555;28;20171;-70
2023/09/01 12:33:54;;;;;;;4.57;3.25;;;19.80;66.50;;;;;;5052756;28;20167;-71
2023/09/01 12:36:19;;;;;;;3.10;2.90;;;19.80;66.40;;;;;;5053364;28;20263;-72
2023/09/01 12:38:45;;;;;;;5.85;3.05;;;19.90;66.30;;;;;;5053575;28;20261;-71
2023/09/01 12:41:10;;;;;;;4.00;3.65;;;19.90;66.30;;;;;;5052317;28;20254;-70
2023/09/01 12:43:36;;;;;;;4.43;3.75;;;19.90;66.30;;;;;;5053254;28;20175;-69
2023/09/01 12:46:02;;;;;;;4.30;3.55;;;19.90;66.20;;;;;;5052963;28;20186;-70
2023/09/01 12:48:27;;;;;;;3.58;3.13;;;19.90;66.20;;;;;;5052652;28;20202;-68